createdAt,value
2018-08-03T00:01:13.238Z,101562.48
2018-08-03T00:04:16.763Z,101566.11
2018-08-03T00:07:20.385Z,101564.38
2018-08-03T00:10:27.029Z,101562.64
2018-08-03T00:13:31.036Z,101567.55
2018-08-03T00:16:34.759Z,101573.51
2018-08-03T00:19:38.816Z,101575.39
2018-08-03T00:22:42.415Z,101569.06
2018-08-03T00:25:46.006Z,101566.97
2018-08-03T00:28:49.617Z,101563.72
2018-08-03T00:31:54.837Z,101557.23
2018-08-03T00:34:58.402Z,101566.27
2018-08-03T00:38:02.065Z,101564.02
2018-08-03T00:41:05.733Z,101563.13
2018-08-03T00:44:09.448Z,101560.03
2018-08-03T00:47:13.857Z,101558.83
2018-08-03T00:50:17.564Z,101563.44
2018-08-03T00:53:21.443Z,101563.29
2018-08-03T00:56:25.811Z,101571.15
2018-08-03T00:59:29.409Z,101570.50
2018-08-03T01:02:33.108Z,101566.23
2018-08-03T01:05:39.045Z,101568.09
2018-08-03T01:08:42.678Z,101574.06
2018-08-03T01:11:46.334Z,101583.19
2018-08-03T01:14:50.295Z,101591.38
2018-08-03T01:17:53.928Z,101588.97
2018-08-03T01:20:57.560Z,101592.59
2018-08-03T01:24:01.275Z,101591.62
2018-08-03T01:27:04.888Z,101587.88
2018-08-03T01:30:10.198Z,101586.15
2018-08-03T01:33:14.054Z,101577.27
2018-08-03T01:36:17.753Z,101578.11
2018-08-03T01:39:21.345Z,101580.52
2018-08-03T01:42:26.983Z,101578.81
2018-08-03T01:45:31.201Z,101583.11
2018-08-03T01:48:35.128Z,101585.41
2018-08-03T01:51:38.812Z,101580.98
2018-08-03T01:54:42.457Z,101580.77
2018-08-03T01:57:46.664Z,101579.69
2018-08-03T02:00:50.268Z,101583.77
2018-08-03T02:03:54.067Z,101588.32
2018-08-03T02:06:58.869Z,101577.30
2018-08-03T02:10:02.569Z,101576.97
2018-08-03T02:13:06.126Z,101577.98
2018-08-03T02:16:09.826Z,101578.79
2018-08-03T02:19:15.437Z,101586.49
2018-08-03T02:22:19.103Z,101587.14
2018-08-03T02:25:22.783Z,101585.87
2018-08-03T02:28:26.294Z,101580.03
2018-08-03T02:31:29.960Z,101584.17
2018-08-03T02:34:33.620Z,101583.28
2018-08-03T02:37:37.871Z,101592.69
2018-08-03T02:40:46.704Z,101597.48
2018-08-03T02:43:50.622Z,101593.39
2018-08-03T02:46:54.879Z,101595.41
2018-08-03T02:50:01.622Z,101590.83
2018-08-03T02:53:05.810Z,101588.05
2018-08-03T02:56:13.175Z,101584.88
2018-08-03T02:59:22.715Z,101592.80
2018-08-03T03:02:27.271Z,101597.92
2018-08-03T03:05:33.160Z,101598.27
2018-08-03T03:08:36.868Z,101598.77
2018-08-03T03:11:45.519Z,101600.99
2018-08-03T03:14:51.596Z,101596.93
2018-08-03T03:17:57.170Z,101590.86
2018-08-03T03:21:02.260Z,101590.02
2018-08-03T03:24:09.219Z,101597.16
2018-08-03T03:27:14.468Z,101595.94
2018-08-03T03:30:20.431Z,101595.36
2018-08-03T03:33:25.673Z,101594.62
2018-08-03T03:36:30.444Z,101587.40
2018-08-03T03:39:36.774Z,101584.55
2018-08-03T03:42:44.697Z,101587.77
2018-08-03T03:45:49.349Z,101600.89
2018-08-03T03:48:53.060Z,101599.68
2018-08-03T03:51:57.095Z,101585.08
2018-08-03T03:55:01.438Z,101583.36
2018-08-03T03:58:05.472Z,101588.94
2018-08-03T04:01:10.343Z,101588.42
2018-08-03T04:04:24.847Z,101591.02
2018-08-03T04:07:34.492Z,101595.59
2018-08-03T04:10:39.767Z,101595.47
2018-08-03T04:13:50.184Z,101600.23
2018-08-03T04:16:58.445Z,101604.74
2018-08-03T04:23:13.833Z,101603.56
2018-08-03T04:26:19.039Z,101597.51
2018-08-03T04:29:25.432Z,101597.14
2018-08-03T04:32:32.494Z,101602.95
2018-08-03T04:35:41.430Z,101602.48
2018-08-03T04:38:48.169Z,101594.00
2018-08-03T04:41:55.493Z,101597.98
2018-08-03T04:45:01.024Z,101600.61
2018-08-03T04:48:06.852Z,101601.38
2018-08-03T04:51:12.139Z,101612.47
2018-08-03T04:54:19.246Z,101612.06
2018-08-03T04:57:25.582Z,101619.48
2018-08-03T05:00:33.457Z,101615.00
2018-08-03T05:03:40.268Z,101623.20
2018-08-03T05:06:46.605Z,101622.16
2018-08-03T05:09:53.871Z,101626.92
2018-08-03T05:13:03.098Z,101635.30
2018-08-03T05:16:08.847Z,101633.46
2018-08-03T05:19:15.121Z,101639.44
2018-08-03T05:25:36.430Z,101633.77
2018-08-03T05:28:40.871Z,101635.77
2018-08-03T05:31:45.793Z,101642.38
2018-08-03T05:34:54.644Z,101636.64
2018-08-03T05:41:23.675Z,101639.12
2018-08-03T05:44:29.743Z,101629.07
2018-08-03T05:47:33.358Z,101628.42
2018-08-03T05:50:38.032Z,101637.13
2018-08-03T05:53:44.165Z,101639.67
2018-08-03T05:56:47.697Z,101647.45
2018-08-03T05:59:51.616Z,101645.36
2018-08-03T06:02:56.136Z,101638.55
2018-08-03T06:05:59.691Z,101645.60
2018-08-03T06:09:03.765Z,101651.05
2018-08-03T06:12:07.343Z,101647.52
2018-08-03T06:15:12.526Z,101650.70
2018-08-03T06:18:16.003Z,101648.94
2018-08-03T06:21:20.559Z,101641.75
2018-08-03T06:24:24.759Z,101647.63
2018-08-03T06:27:28.228Z,101644.08
2018-08-03T06:30:31.804Z,101639.97
2018-08-03T06:33:37.242Z,101643.97
2018-08-03T06:36:40.925Z,101644.78
2018-08-03T06:39:45.390Z,101642.98
2018-08-03T06:42:48.819Z,101641.69
2018-08-03T06:45:52.354Z,101642.92
2018-08-03T06:48:55.857Z,101638.84
2018-08-03T06:52:01.540Z,101640.72
2018-08-03T06:55:05.072Z,101637.56
2018-08-03T06:58:08.603Z,101644.33
2018-08-03T07:01:13.332Z,101647.71
2018-08-03T07:04:17.768Z,101644.19
2018-08-03T07:07:21.485Z,101641.62
2018-08-03T07:10:24.970Z,101632.33
2018-08-03T07:13:34.962Z,101635.22
2018-08-03T07:16:38.597Z,101638.64
2018-08-03T07:19:42.131Z,101634.88
2018-08-03T07:22:45.869Z,101628.77
2018-08-03T07:25:49.725Z,101623.13
2018-08-03T07:28:53.628Z,101623.11
2018-08-03T07:31:58.474Z,101620.04
2018-08-03T07:35:01.946Z,101619.20
2018-08-03T07:38:05.572Z,101617.51
2018-08-03T07:41:09.286Z,101616.98
2018-08-03T07:44:16.710Z,101621.41
2018-08-03T07:47:21.490Z,101617.14
2018-08-03T07:50:26.036Z,101610.97
2018-08-03T07:53:30.717Z,101607.34
2018-08-03T07:56:34.248Z,101615.34
2018-08-03T07:59:40.601Z,101608.67
2018-08-03T08:02:44.328Z,101609.95
2018-08-03T08:05:47.814Z,101617.75
2018-08-03T08:08:51.585Z,101612.38
2018-08-03T08:11:55.184Z,101611.43
2018-08-03T08:14:58.731Z,101607.66
2018-08-03T08:18:02.230Z,101611.56
2018-08-03T08:21:05.813Z,101614.57
2018-08-03T08:24:09.312Z,101623.80
2018-08-03T08:27:14.914Z,101609.63
2018-08-03T08:30:18.514Z,101605.70
2018-08-03T08:33:22.066Z,101601.66
2018-08-03T08:36:25.621Z,101602.91
2018-08-03T08:39:29.068Z,101596.09
2018-08-03T08:42:44.457Z,101601.98
2018-08-03T08:45:48.161Z,101602.34
2018-08-03T08:48:53.045Z,101602.27
2018-08-03T08:51:56.515Z,101605.64
2018-08-03T08:55:00.139Z,101602.84
2018-08-03T08:58:04.420Z,101598.05
2018-08-03T09:01:07.904Z,101599.64
2018-08-03T09:04:11.465Z,101596.38
2018-08-03T09:07:15.380Z,101588.41
2018-08-03T09:10:19.407Z,101587.81
2018-08-03T09:13:23.146Z,101581.22
2018-08-03T09:16:27.815Z,101584.12
2018-08-03T09:19:31.611Z,101582.05
2018-08-03T09:22:35.496Z,101582.10
2018-08-03T09:25:40.354Z,101574.62
2018-08-03T09:28:45.630Z,101570.00
2018-08-03T09:31:49.226Z,101568.84
2018-08-03T09:34:52.920Z,101563.43
2018-08-03T09:37:57.591Z,101551.37
2018-08-03T09:41:01.856Z,101562.69
2018-08-03T09:44:05.903Z,101564.95
2018-08-03T09:47:11.445Z,101559.17
2018-08-03T09:50:15.081Z,101553.19
2018-08-03T09:53:18.741Z,101546.70
2018-08-03T09:56:22.564Z,101548.13
2018-08-03T09:59:26.247Z,101549.14
2018-08-03T10:02:30.016Z,101542.92
2018-08-03T10:05:33.707Z,101543.00
2018-08-03T10:08:39.494Z,101540.41
2018-08-03T10:11:43.052Z,101536.66
2018-08-03T10:14:46.630Z,101531.26
2018-08-03T10:17:50.331Z,101529.17
2018-08-03T10:20:54.553Z,101528.09
2018-08-03T10:23:58.052Z,101529.89
2018-08-03T10:27:01.533Z,101527.23
2018-08-03T10:30:05.821Z,101527.18
2018-08-03T10:33:09.400Z,101529.28
2018-08-03T10:36:12.986Z,101527.89
2018-08-03T10:39:17.214Z,101522.77
2018-08-03T10:42:21.611Z,101519.13
2018-08-03T10:45:25.371Z,101514.59
2018-08-03T10:48:28.896Z,101507.89
2018-08-03T10:51:32.519Z,101510.53
2018-08-03T10:54:36.253Z,101507.58
2018-08-03T10:57:41.597Z,101508.33
2018-08-03T11:00:45.207Z,101501.48
2018-08-03T11:03:48.779Z,101494.34
2018-08-03T11:06:52.367Z,101499.36
2018-08-03T11:09:55.820Z,101496.62
2018-08-03T11:13:00.047Z,101491.73
2018-08-03T11:16:04.276Z,101497.89
2018-08-03T11:19:07.856Z,101491.08
2018-08-03T11:22:11.359Z,101483.67
2018-08-03T11:25:15.532Z,101484.64
2018-08-03T11:28:19.119Z,101484.72
2018-08-03T11:31:22.702Z,101488.51
2018-08-03T11:34:26.803Z,101482.66
2018-08-03T11:37:31.769Z,101480.98
2018-08-03T11:40:37.291Z,101481.10
2018-08-03T11:43:40.835Z,101481.47
2018-08-03T11:46:45.474Z,101477.73
2018-08-03T11:49:49.059Z,101480.53
2018-08-03T11:52:52.686Z,101474.13
2018-08-03T11:55:56.165Z,101461.57
2018-08-03T11:59:00.191Z,101469.75
2018-08-03T12:02:03.896Z,101456.16
2018-08-03T12:05:08.359Z,101457.92
2018-08-03T12:08:12.280Z,101456.83
2018-08-03T12:11:16.726Z,101450.63
2018-08-03T12:14:21.629Z,101451.59
2018-08-03T12:17:25.372Z,101447.67
2018-08-03T12:20:28.941Z,101448.38
2018-08-03T12:23:33.048Z,101448.61
2018-08-03T12:26:36.666Z,101435.34
2018-08-03T12:29:42.258Z,101433.03
2018-08-03T12:32:47.963Z,101437.06
2018-08-03T12:35:51.449Z,101434.38
2018-08-03T12:38:55.000Z,101430.98
2018-08-03T12:41:59.488Z,101425.56
2018-08-03T12:45:02.979Z,101421.23
2018-08-03T12:48:06.477Z,101416.55
2018-08-03T12:51:10.078Z,101407.27
2018-08-03T12:54:13.662Z,101411.40
2018-08-03T12:57:17.242Z,101409.88
2018-08-03T13:00:20.756Z,101401.40
2018-08-03T13:03:25.383Z,101396.28
2018-08-03T13:06:28.940Z,101394.30
2018-08-03T13:09:33.976Z,101392.67
2018-08-03T13:12:37.841Z,101389.73
2018-08-03T13:15:42.356Z,101389.96
2018-08-03T13:18:46.682Z,101386.37
2018-08-03T13:21:50.498Z,101376.42
2018-08-03T13:24:54.662Z,101373.72
2018-08-03T13:27:58.418Z,101381.00
2018-08-03T13:31:03.995Z,101377.02
2018-08-03T13:34:07.506Z,101372.34
2018-08-03T13:37:11.091Z,101367.00
2018-08-03T13:40:15.660Z,101369.67
2018-08-03T13:43:20.130Z,101360.38
2018-08-03T13:46:25.371Z,101356.83
2018-08-03T13:49:28.973Z,101356.81
2018-08-03T13:52:33.628Z,101350.25
2018-08-03T13:55:37.111Z,101347.35
2018-08-03T13:58:43.480Z,101338.20
2018-08-03T14:01:58.221Z,101342.95
2018-08-03T14:05:03.205Z,101334.83
2018-08-03T14:08:06.783Z,101336.47
2018-08-03T14:11:11.269Z,101329.34
2018-08-03T14:14:15.835Z,101329.00
2018-08-03T14:17:19.340Z,101322.81
2018-08-03T14:20:22.805Z,101316.05
2018-08-03T14:23:26.491Z,101316.67
2018-08-03T14:26:30.322Z,101314.31
2018-08-03T14:29:34.940Z,101313.66
2018-08-03T14:32:38.469Z,101311.93
2018-08-03T14:35:43.861Z,101301.77
2018-08-03T14:38:47.414Z,101301.31
2018-08-03T14:41:50.915Z,101301.61
2018-08-03T14:44:55.308Z,101296.89
2018-08-03T14:47:58.874Z,101297.02
2018-08-03T14:51:02.457Z,101292.16
2018-08-03T14:54:07.004Z,101292.28
2018-08-03T14:57:10.478Z,101289.56
2018-08-03T15:00:13.959Z,101281.59
2018-08-03T15:03:20.065Z,101285.77
2018-08-03T15:06:24.346Z,101276.33
2018-08-03T15:09:28.313Z,101268.64
2018-08-03T15:12:31.772Z,101274.89
2018-08-03T15:15:35.551Z,101270.81
2018-08-03T15:18:39.092Z,101267.99
2018-08-03T15:21:42.704Z,101267.56
2018-08-03T15:24:46.180Z,101258.98
2018-08-03T15:27:49.768Z,101262.46
2018-08-03T15:30:53.416Z,101258.38
2018-08-03T15:33:57.154Z,101252.28
2018-08-03T15:37:00.720Z,101256.07
2018-08-03T15:40:05.277Z,101252.22
2018-08-03T15:43:08.750Z,101253.07
2018-08-03T15:46:12.869Z,101253.90
2018-08-03T15:49:16.604Z,101248.98
2018-08-03T15:52:20.099Z,101239.92
2018-08-03T15:55:24.351Z,101246.22
2018-08-03T15:58:27.842Z,101244.70
2018-08-03T16:01:32.328Z,101243.93
2018-08-03T16:04:35.808Z,101236.95
2018-08-03T16:07:39.400Z,101244.08
2018-08-03T16:10:43.573Z,101237.52
2018-08-03T16:13:47.215Z,101234.04
2018-08-03T16:16:50.721Z,101235.01
2018-08-03T16:19:54.391Z,101230.48
2018-08-03T16:22:59.563Z,101229.92
2018-08-03T16:26:03.040Z,101230.09
2018-08-03T16:29:06.616Z,101220.42
2018-08-03T16:32:12.629Z,101222.53
2018-08-03T16:35:17.053Z,101212.55
2018-08-03T16:38:21.630Z,101224.05
2018-08-03T16:41:26.308Z,101220.58
2018-08-03T16:44:29.922Z,101210.91
2018-08-03T16:47:33.443Z,101214.89
2018-08-03T16:50:37.752Z,101211.41
2018-08-03T16:53:42.838Z,101207.33
2018-08-03T16:56:51.557Z,101199.91
2018-08-03T16:59:55.844Z,101200.91
2018-08-03T17:03:00.031Z,101196.85
2018-08-03T17:06:04.661Z,101198.33
2018-08-03T17:09:11.753Z,101190.73
2018-08-03T17:12:15.521Z,101192.15
2018-08-03T17:15:20.221Z,101192.97
2018-08-03T17:18:23.800Z,101191.97
2018-08-03T17:21:29.244Z,101193.30
2018-08-03T17:24:34.682Z,101190.48
2018-08-03T17:27:38.612Z,101186.50
2018-08-03T17:30:42.407Z,101185.14
2018-08-03T17:33:47.387Z,101186.13
2018-08-03T17:36:51.769Z,101183.42
2018-08-03T17:39:56.945Z,101182.25
2018-08-03T17:43:00.452Z,101181.75
2018-08-03T17:46:06.574Z,101187.26
2018-08-03T17:49:11.004Z,101186.88
2018-08-03T17:52:15.235Z,101187.59
2018-08-03T17:55:19.567Z,101188.58
2018-08-03T17:58:23.453Z,101191.52
2018-08-03T18:01:28.001Z,101188.56
2018-08-03T18:04:33.044Z,101189.31
2018-08-03T18:07:39.958Z,101203.17
2018-08-03T18:10:43.625Z,101204.44
2018-08-03T18:13:48.971Z,101204.73
2018-08-03T18:16:56.011Z,101205.66
2018-08-03T18:19:59.677Z,101202.92
2018-08-03T18:23:03.290Z,101201.66
2018-08-03T18:26:08.382Z,101205.20
2018-08-03T18:29:14.540Z,101207.84
2018-08-03T18:32:18.177Z,101210.91
2018-08-03T18:35:25.345Z,101211.28
2018-08-03T18:38:29.291Z,101211.16
2018-08-03T18:41:33.982Z,101219.20
2018-08-03T18:44:37.598Z,101217.31
2018-08-03T18:47:43.138Z,101219.55
2018-08-03T18:50:47.468Z,101221.66
2018-08-03T18:53:51.065Z,101221.31
2018-08-03T18:56:54.672Z,101231.14
2018-08-03T18:59:58.218Z,101224.98
2018-08-03T19:03:03.656Z,101233.48
2018-08-03T19:06:11.683Z,101228.75
2018-08-03T19:09:23.381Z,101235.62
2018-08-03T19:12:32.274Z,101228.27
2018-08-03T19:15:50.566Z,101237.27
2018-08-03T19:18:56.792Z,101236.68
2018-08-03T19:22:02.479Z,101230.52
2018-08-03T19:25:15.079Z,101232.83
2018-08-03T19:28:23.117Z,101228.28
2018-08-03T19:31:28.296Z,101224.28
2018-08-03T19:34:47.880Z,101221.71
2018-08-03T19:43:13.136Z,101224.42
2018-08-03T19:46:24.817Z,101224.95
2018-08-03T19:49:30.542Z,101220.55
2018-08-03T19:56:09.773Z,101223.02
2018-08-03T19:59:21.882Z,101226.00
2018-08-03T20:02:28.614Z,101218.64
2018-08-03T20:05:32.527Z,101219.28
2018-08-03T20:08:41.564Z,101220.48
2018-08-03T20:11:49.979Z,101218.32
2018-08-03T20:15:01.226Z,101221.33
2018-08-03T20:18:13.184Z,101222.70
2018-08-03T20:21:22.706Z,101224.41
2018-08-03T20:24:28.967Z,101225.96
2018-08-03T20:27:38.318Z,101227.71
2018-08-03T20:30:45.729Z,101227.13
2018-08-03T20:33:55.387Z,101228.74
2018-08-03T20:36:59.225Z,101232.80
2018-08-03T20:40:18.172Z,101233.31
2018-08-03T20:43:27.056Z,101233.05
2018-08-03T20:46:33.277Z,101226.89
2018-08-03T20:49:46.238Z,101231.19
2018-08-03T20:52:50.460Z,101227.67
2018-08-03T20:59:13.855Z,101239.55
2018-08-03T21:02:22.921Z,101238.98
2018-08-03T21:05:35.102Z,101237.20
2018-08-03T21:08:41.569Z,101241.62
2018-08-03T21:11:52.334Z,101239.70
2018-08-03T21:18:15.190Z,101237.53
2018-08-03T21:21:30.105Z,101242.44
2018-08-03T21:30:24.346Z,101239.20
2018-08-03T21:33:38.334Z,101240.94
2018-08-03T21:36:46.392Z,101237.58
2018-08-03T21:39:56.809Z,101237.58
2018-08-03T21:43:01.694Z,101241.20
2018-08-03T21:46:29.344Z,101237.58
2018-08-03T21:49:34.166Z,101238.30
2018-08-03T21:52:51.550Z,101228.05
2018-08-03T21:55:56.307Z,101228.39
2018-08-03T21:59:24.648Z,101225.23
2018-08-03T22:02:37.886Z,101229.33
2018-08-03T22:05:52.887Z,101230.43
2018-08-03T22:08:56.671Z,101228.22
2018-08-03T22:12:02.724Z,101232.16
2018-08-03T22:15:06.403Z,101227.16
2018-08-03T22:18:11.443Z,101221.11
2018-08-03T22:21:15.241Z,101226.08
2018-08-03T22:24:21.481Z,101224.89
2018-08-03T22:27:28.084Z,101223.78
2018-08-03T22:30:33.055Z,101224.36
2018-08-03T22:33:36.839Z,101215.78
2018-08-03T22:36:42.780Z,101220.55
2018-08-03T22:39:46.618Z,101214.80
2018-08-03T22:42:52.524Z,101215.28
2018-08-03T22:46:01.230Z,101221.03
2018-08-03T22:49:06.399Z,101220.47
2018-08-03T22:52:12.164Z,101213.17
2018-08-03T22:55:18.732Z,101207.11
2018-08-03T22:58:23.181Z,101197.34
2018-08-03T23:01:27.980Z,101199.96
2018-08-03T23:04:32.709Z,101196.78
2018-08-03T23:07:36.532Z,101200.02
2018-08-03T23:10:40.313Z,101201.56
2018-08-03T23:13:45.972Z,101194.94
2018-08-03T23:16:49.685Z,101196.79
2018-08-03T23:19:53.304Z,101192.81
2018-08-03T23:22:58.989Z,101193.05
2018-08-03T23:26:03.568Z,101194.66
2018-08-03T23:29:07.372Z,101194.99
2018-08-03T23:32:11.207Z,101189.13
2018-08-03T23:35:18.984Z,101184.03
2018-08-03T23:38:24.811Z,101186.30
2018-08-03T23:41:36.270Z,101185.43
2018-08-03T23:44:45.751Z,101181.84
2018-08-03T23:47:52.275Z,101183.64
2018-08-03T23:50:56.925Z,101188.59
2018-08-03T23:54:00.661Z,101178.01
2018-08-03T23:57:08.594Z,101184.06
